createdAt,value
2017-12-02T00:01:23.315Z,67.67
2017-12-02T00:03:51.916Z,64.12
2017-12-02T00:06:19.538Z,57.07
2017-12-02T00:08:47.103Z,48.63
2017-12-02T00:11:14.675Z,47.80
2017-12-02T00:13:42.267Z,58.97
2017-12-02T00:16:09.839Z,47.70
2017-12-02T00:18:37.432Z,55.33
2017-12-02T00:21:04.999Z,52.85
2017-12-02T00:23:32.591Z,46.70
2017-12-02T00:26:00.160Z,64.80
2017-12-02T00:28:27.751Z,55.97
2017-12-02T00:30:56.144Z,54.27
2017-12-02T00:33:24.604Z,54.17
2017-12-02T00:35:54.495Z,70.90
2017-12-02T00:38:22.083Z,50.07
2017-12-02T00:40:49.647Z,58.53
2017-12-02T00:43:17.240Z,58.17
2017-12-02T00:45:44.820Z,63.53
2017-12-02T00:48:12.624Z,48.30
2017-12-02T00:50:40.188Z,55.73
2017-12-02T00:53:07.754Z,62.50
2017-12-02T00:55:35.348Z,45.87
2017-12-02T00:58:02.964Z,56.03
2017-12-02T01:00:30.545Z,68.10
2017-12-02T01:02:58.884Z,48.28
2017-12-02T01:05:26.556Z,60.00
2017-12-02T01:07:54.128Z,48.27
2017-12-02T01:10:21.729Z,50.20
2017-12-02T01:12:49.296Z,45.73
2017-12-02T01:15:16.916Z,52.40
2017-12-02T01:17:44.489Z,51.70
2017-12-02T01:20:12.836Z,59.27
2017-12-02T01:22:40.427Z,60.70
2017-12-02T01:25:07.996Z,53.58
2017-12-02T01:27:36.351Z,54.03
2017-12-02T01:30:03.920Z,59.27
2017-12-02T01:32:31.519Z,54.23
2017-12-02T01:34:59.088Z,58.13
2017-12-02T01:37:26.679Z,53.30
2017-12-02T01:39:54.247Z,49.70
2017-12-02T01:42:21.860Z,60.60
2017-12-02T01:44:49.440Z,56.20
2017-12-02T01:47:17.008Z,46.57
2017-12-02T01:49:44.600Z,57.20
2017-12-02T01:52:12.987Z,57.30
2017-12-02T01:54:41.347Z,55.13
2017-12-02T01:57:09.038Z,63.00
2017-12-02T01:59:36.679Z,65.20
2017-12-02T02:02:06.075Z,56.10
2017-12-02T02:04:33.649Z,63.97
2017-12-02T02:07:01.248Z,51.45
2017-12-02T02:09:29.039Z,49.22
2017-12-02T02:11:56.907Z,52.20
2017-12-02T02:14:24.775Z,55.73
2017-12-02T02:16:54.858Z,58.87
2017-12-02T02:19:22.462Z,59.63
2017-12-02T02:21:51.137Z,56.97
2017-12-02T02:24:18.724Z,70.23
2017-12-02T02:26:46.388Z,59.90
2017-12-02T02:29:13.983Z,57.13
2017-12-02T02:31:42.318Z,55.53
2017-12-02T02:34:09.910Z,57.92
2017-12-02T02:36:37.475Z,61.17
2017-12-02T02:39:05.068Z,62.53
2017-12-02T02:41:32.636Z,56.77
2017-12-02T02:44:00.235Z,71.82
2017-12-02T02:46:27.808Z,51.70
2017-12-02T02:48:55.403Z,66.17
2017-12-02T02:51:22.990Z,59.00
2017-12-02T02:53:51.929Z,66.70
2017-12-02T02:56:19.592Z,51.83
2017-12-02T02:58:47.188Z,49.83
2017-12-02T03:01:14.760Z,50.00
2017-12-02T03:03:42.352Z,57.70
2017-12-02T03:06:09.924Z,57.90
2017-12-02T03:08:37.908Z,58.87
2017-12-02T03:11:05.471Z,65.87
2017-12-02T03:13:33.040Z,55.70
2017-12-02T03:16:01.404Z,52.97
2017-12-02T03:18:28.991Z,47.80
2017-12-02T03:20:56.807Z,51.03
2017-12-02T03:23:24.380Z,62.80
2017-12-02T03:25:53.691Z,54.00
2017-12-02T03:28:21.257Z,51.63
2017-12-02T03:30:49.612Z,59.75
2017-12-02T03:33:17.185Z,56.70
2017-12-02T03:35:46.316Z,45.50
2017-12-02T03:38:13.904Z,52.50
2017-12-02T03:40:41.476Z,49.70
2017-12-02T03:43:09.123Z,51.88
2017-12-02T03:45:36.688Z,61.37
2017-12-02T03:48:04.275Z,53.83
2017-12-02T03:50:31.847Z,50.28
2017-12-02T03:52:59.439Z,51.97
2017-12-02T03:55:27.775Z,54.97
2017-12-02T03:57:55.660Z,56.53
2017-12-02T04:00:23.997Z,54.07
2017-12-02T04:02:53.629Z,43.03
2017-12-02T04:05:21.224Z,48.70
2017-12-02T04:07:49.555Z,44.03
2017-12-02T04:10:17.148Z,43.20
2017-12-02T04:12:44.722Z,44.97
2017-12-02T04:15:13.084Z,51.40
2017-12-02T04:17:40.665Z,38.97
2017-12-02T04:20:09.440Z,44.33
2017-12-02T04:22:37.004Z,50.40
2017-12-02T04:25:04.608Z,42.93
2017-12-02T04:27:32.204Z,51.50
2017-12-02T04:29:59.767Z,40.70
2017-12-02T04:32:27.360Z,50.60
2017-12-02T04:34:55.699Z,49.27
2017-12-02T04:37:23.296Z,44.73
2017-12-02T04:39:52.859Z,51.00
2017-12-02T04:42:20.452Z,50.83
2017-12-02T04:44:48.020Z,46.17
2017-12-02T04:47:15.672Z,55.40
2017-12-02T04:49:43.250Z,49.77
2017-12-02T04:52:11.584Z,52.97
2017-12-02T04:54:39.188Z,51.60
2017-12-02T04:57:07.523Z,46.58
2017-12-02T04:59:35.120Z,51.60
2017-12-02T05:02:02.691Z,44.70
2017-12-02T05:04:31.056Z,49.47
2017-12-02T05:07:00.132Z,43.72
2017-12-02T05:09:27.720Z,44.60
2017-12-02T05:11:55.305Z,54.63
2017-12-02T05:14:22.936Z,40.25
2017-12-02T05:16:52.851Z,51.40
2017-12-02T05:19:20.616Z,42.73
2017-12-02T05:21:48.186Z,47.07
2017-12-02T05:24:15.756Z,47.47
2017-12-02T05:26:44.112Z,45.30
2017-12-02T05:29:11.675Z,44.73
2017-12-02T05:31:39.271Z,42.93
2017-12-02T05:34:06.835Z,54.08
2017-12-02T05:36:34.484Z,39.80
2017-12-02T05:39:03.128Z,40.20
2017-12-02T05:41:30.696Z,40.97
2017-12-02T05:43:58.283Z,41.40
2017-12-02T05:46:26.624Z,32.80
2017-12-02T05:48:54.225Z,36.63
2017-12-02T05:51:22.559Z,47.57
2017-12-02T05:53:51.077Z,38.53
2017-12-02T05:56:18.643Z,39.63
2017-12-02T05:58:46.272Z,47.57
2017-12-02T06:01:14.644Z,52.78
2017-12-02T06:03:42.239Z,50.50
2017-12-02T06:06:10.579Z,43.33
2017-12-02T06:08:38.148Z,34.10
2017-12-02T06:11:05.744Z,33.17
2017-12-02T06:13:34.080Z,25.50
2017-12-02T06:16:01.668Z,31.87
2017-12-02T06:18:29.239Z,38.73
2017-12-02T06:20:56.836Z,39.83
2017-12-02T06:23:24.404Z,28.90
2017-12-02T06:25:53.760Z,35.78
2017-12-02T06:28:21.328Z,37.30
2017-12-02T06:30:49.683Z,41.03
2017-12-02T06:33:17.252Z,46.13
2017-12-02T06:35:44.843Z,32.97
2017-12-02T06:38:13.181Z,39.07
2017-12-02T06:40:40.772Z,34.63
2017-12-02T06:43:09.112Z,45.45
2017-12-02T06:45:36.731Z,41.50
2017-12-02T06:48:04.304Z,36.77
2017-12-02T06:50:31.872Z,41.63
2017-12-02T06:52:59.477Z,38.23
2017-12-02T06:55:27.048Z,36.40
2017-12-02T06:57:55.424Z,21.23
2017-12-02T07:00:23.076Z,29.27
2017-12-02T07:02:52.772Z,34.17
2017-12-02T07:05:20.359Z,23.97
2017-12-02T07:07:47.927Z,28.70
2017-12-02T07:10:16.287Z,29.63
2017-12-02T07:12:43.864Z,32.00
2017-12-02T07:15:12.227Z,32.83
2017-12-02T07:17:39.791Z,29.60
2017-12-02T07:20:07.387Z,30.00
2017-12-02T07:22:34.956Z,39.60
2017-12-02T07:25:02.547Z,38.50
2017-12-02T07:27:30.107Z,38.77
2017-12-02T07:29:57.700Z,29.46
2017-12-02T07:32:25.260Z,27.27
2017-12-02T07:34:54.556Z,25.40
2017-12-02T07:37:22.895Z,31.77
2017-12-02T07:39:52.640Z,25.62
2017-12-02T07:42:20.204Z,26.33
2017-12-02T07:44:48.052Z,22.77
2017-12-02T07:47:15.616Z,29.50
2017-12-02T07:49:43.231Z,29.20
2017-12-02T07:52:10.800Z,21.48
2017-12-02T07:54:38.368Z,24.70
2017-12-02T07:57:05.960Z,25.40
2017-12-02T07:59:33.523Z,29.70
2017-12-02T08:02:01.148Z,21.95
2017-12-02T08:04:28.764Z,24.67
2017-12-02T08:06:57.119Z,16.98
2017-12-02T08:09:24.704Z,22.00
2017-12-02T08:11:53.908Z,20.70
2017-12-02T08:14:21.487Z,21.37
2017-12-02T08:16:49.816Z,20.03
2017-12-02T08:19:17.397Z,22.27
2017-12-02T08:21:44.960Z,26.47
2017-12-02T08:24:12.548Z,21.20
2017-12-02T08:26:40.899Z,22.75
2017-12-02T08:29:08.482Z,20.53
2017-12-02T08:31:36.808Z,21.20
2017-12-02T08:34:04.387Z,19.57
2017-12-02T08:36:31.953Z,22.05
2017-12-02T08:38:59.540Z,19.58
2017-12-02T08:41:27.863Z,27.63
2017-12-02T08:43:55.447Z,26.87
2017-12-02T08:46:23.020Z,27.83
2017-12-02T08:48:52.756Z,25.43
2017-12-02T08:51:21.088Z,27.07
2017-12-02T08:53:48.652Z,25.33
2017-12-02T08:56:16.247Z,27.00
2017-12-02T08:58:44.575Z,37.30
2017-12-02T09:01:12.168Z,39.13
2017-12-02T09:03:39.731Z,42.63
2017-12-02T09:06:08.832Z,34.07
2017-12-02T09:08:37.216Z,37.80
2017-12-02T09:11:04.872Z,26.45
2017-12-02T09:13:32.434Z,32.90
2017-12-02T09:16:00.064Z,45.08
2017-12-02T09:18:27.628Z,41.10
2017-12-02T09:20:55.224Z,32.03
2017-12-02T09:23:22.811Z,28.07
2017-12-02T09:25:52.651Z,24.40
2017-12-02T09:28:20.256Z,24.10
2017-12-02T09:30:47.815Z,23.83
2017-12-02T09:33:15.404Z,22.80
2017-12-02T09:35:42.971Z,25.02
2017-12-02T09:38:10.563Z,26.67
2017-12-02T09:40:38.155Z,22.63
2017-12-02T09:43:05.767Z,22.60
2017-12-02T09:45:33.332Z,18.33
2017-12-02T09:48:00.901Z,20.55
2017-12-02T09:50:28.496Z,17.93
2017-12-02T09:52:56.068Z,15.03
2017-12-02T09:55:23.655Z,20.10
2017-12-02T09:57:53.712Z,18.23
2017-12-02T10:00:21.336Z,22.90
2017-12-02T10:02:48.904Z,17.75
2017-12-02T10:05:16.495Z,21.90
2017-12-02T10:07:44.068Z,25.30
2017-12-02T10:10:11.815Z,20.97
2017-12-02T10:12:39.377Z,20.67
2017-12-02T10:15:06.944Z,19.23
2017-12-02T10:17:34.532Z,20.27
2017-12-02T10:20:03.607Z,17.98
2017-12-02T10:22:31.200Z,18.63
2017-12-02T10:24:59.540Z,18.95
2017-12-02T10:27:27.128Z,18.87
2017-12-02T10:29:54.703Z,20.00
2017-12-02T10:32:23.171Z,16.97
2017-12-02T10:34:52.755Z,23.05
2017-12-02T10:37:20.324Z,20.80
2017-12-02T10:39:47.915Z,22.17
2017-12-02T10:42:16.296Z,19.93
2017-12-02T10:44:44.627Z,18.98
2017-12-02T10:47:12.260Z,21.47
2017-12-02T10:49:39.856Z,15.10
2017-12-02T10:52:07.428Z,19.20
2017-12-02T10:54:35.020Z,17.80
2017-12-02T10:57:03.352Z,21.35
2017-12-02T10:59:30.949Z,18.13
2017-12-02T11:01:58.516Z,16.67
2017-12-02T11:04:26.867Z,16.73
2017-12-02T11:06:54.423Z,14.90
2017-12-02T11:09:22.008Z,18.83
2017-12-02T11:11:49.571Z,24.10
2017-12-02T11:14:17.920Z,16.33
2017-12-02T11:16:45.576Z,20.03
2017-12-02T11:19:13.160Z,21.67
2017-12-02T11:21:40.719Z,19.10
2017-12-02T11:24:08.316Z,33.73
2017-12-02T11:26:36.643Z,25.83
2017-12-02T11:29:04.236Z,28.35
2017-12-02T11:31:32.576Z,31.33
2017-12-02T11:34:00.367Z,32.28
2017-12-02T11:36:28.032Z,25.53
2017-12-02T11:38:55.600Z,27.83
2017-12-02T11:41:24.696Z,31.43
2017-12-02T11:43:54.008Z,31.80
2017-12-02T11:46:22.359Z,37.03
2017-12-02T11:48:50.853Z,36.00
2017-12-02T11:51:18.700Z,34.70
2017-12-02T11:53:46.259Z,37.30
2017-12-02T11:56:13.847Z,43.80
2017-12-02T11:58:41.403Z,39.63
2017-12-02T12:01:09.764Z,39.17
2017-12-02T12:03:37.331Z,36.07
2017-12-02T12:06:05.696Z,41.13
2017-12-02T12:08:33.279Z,32.53
2017-12-02T12:11:00.844Z,41.37
2017-12-02T12:13:28.501Z,48.03
2017-12-02T12:15:56.173Z,45.90
2017-12-02T12:18:24.563Z,41.00
2017-12-02T12:20:54.663Z,54.40
2017-12-02T12:23:22.224Z,50.53
2017-12-02T12:25:49.819Z,46.90
2017-12-02T12:28:18.157Z,57.63
2017-12-02T12:30:45.747Z,56.13
2017-12-02T12:33:14.080Z,53.00
2017-12-02T12:35:41.672Z,50.30
2017-12-02T12:38:09.239Z,49.93
2017-12-02T12:40:36.839Z,57.30
2017-12-02T12:43:04.404Z,55.08
2017-12-02T12:45:31.972Z,55.57
2017-12-02T12:47:59.564Z,48.30
2017-12-02T12:50:27.163Z,55.63
2017-12-02T12:52:55.515Z,48.40
2017-12-02T12:55:24.579Z,59.30
2017-12-02T12:57:55.136Z,41.90
2017-12-02T13:00:22.700Z,50.93
2017-12-02T13:02:51.892Z,54.53
2017-12-02T13:05:19.476Z,54.83
2017-12-02T13:07:47.832Z,52.97
2017-12-02T13:10:15.403Z,63.50
2017-12-02T13:12:43.168Z,61.15
2017-12-02T13:15:10.739Z,60.33
2017-12-02T13:17:39.540Z,56.50
2017-12-02T13:20:07.896Z,63.13
2017-12-02T13:22:35.456Z,59.00
2017-12-02T13:25:03.808Z,61.85
2017-12-02T13:27:31.408Z,53.63
2017-12-02T13:30:00.028Z,50.35
2017-12-02T13:32:27.600Z,52.20
2017-12-02T13:34:55.163Z,48.63
2017-12-02T13:37:22.768Z,51.97
2017-12-02T13:39:50.423Z,52.97
2017-12-02T13:42:18.400Z,50.60
2017-12-02T13:44:45.995Z,59.50
2017-12-02T13:47:13.564Z,54.90
2017-12-02T13:49:41.151Z,53.30
2017-12-02T13:52:08.716Z,50.47
2017-12-02T13:54:36.299Z,43.37
2017-12-02T13:57:03.913Z,46.37
2017-12-02T13:59:31.480Z,49.13
2017-12-02T14:01:59.067Z,49.90
2017-12-02T14:04:26.647Z,51.07
2017-12-02T14:06:56.627Z,54.45
2017-12-02T14:09:24.314Z,48.13
2017-12-02T14:11:51.884Z,43.30
2017-12-02T14:14:19.543Z,36.83
2017-12-02T14:16:48.607Z,38.77
2017-12-02T14:19:16.196Z,42.30
2017-12-02T14:21:43.772Z,46.28
2017-12-02T14:24:12.157Z,37.03
2017-12-02T14:26:40.488Z,40.77
2017-12-02T14:29:08.081Z,46.13
2017-12-02T14:31:35.676Z,50.77
2017-12-02T14:34:03.389Z,50.57
2017-12-02T14:36:30.960Z,42.50
2017-12-02T14:38:58.524Z,49.73
2017-12-02T14:41:26.112Z,46.60
2017-12-02T14:43:55.568Z,43.75
2017-12-02T14:46:23.259Z,43.80
2017-12-02T14:48:50.836Z,49.17
2017-12-02T14:51:19.188Z,44.60
2017-12-02T14:53:46.748Z,49.90
2017-12-02T14:56:14.336Z,50.53
2017-12-02T14:58:42.700Z,47.70
2017-12-02T15:01:11.796Z,50.35
2017-12-02T15:03:39.366Z,58.10
2017-12-02T15:06:07.770Z,50.70
2017-12-02T15:08:35.335Z,40.40
2017-12-02T15:11:02.928Z,50.45
2017-12-02T15:13:30.491Z,48.70
2017-12-02T15:15:58.080Z,53.47
2017-12-02T15:18:25.644Z,42.90
2017-12-02T15:20:54.943Z,56.97
2017-12-02T15:23:22.502Z,56.97
2017-12-02T15:25:50.928Z,46.07
2017-12-02T15:28:18.536Z,61.73
2017-12-02T15:30:46.104Z,55.73
2017-12-02T15:33:14.029Z,46.40
2017-12-02T15:35:41.596Z,58.53
2017-12-02T15:38:09.184Z,47.13
2017-12-02T15:40:36.753Z,50.27
2017-12-02T15:43:04.398Z,52.20
2017-12-02T15:45:31.964Z,55.17
2017-12-02T15:47:59.555Z,51.33
2017-12-02T15:50:27.889Z,56.88
2017-12-02T15:52:57.007Z,59.17
2017-12-02T15:55:24.627Z,58.83
2017-12-02T15:57:53.116Z,62.53
2017-12-02T16:00:20.704Z,51.60
2017-12-02T16:02:49.063Z,51.90
2017-12-02T16:05:16.672Z,59.43
2017-12-02T16:07:45.012Z,57.67
2017-12-02T16:10:12.936Z,61.63
2017-12-02T16:12:40.531Z,50.87
2017-12-02T16:15:08.100Z,67.75
2017-12-02T16:17:36.177Z,58.47
2017-12-02T16:20:03.748Z,57.62
2017-12-02T16:22:31.325Z,54.20
2017-12-02T16:24:58.980Z,48.95
2017-12-02T16:27:26.560Z,52.47
2017-12-02T16:29:56.658Z,60.10
2017-12-02T16:32:24.224Z,60.17
2017-12-02T16:34:51.811Z,88.77
2017-12-02T16:37:20.144Z,82.70
2017-12-02T16:39:47.735Z,68.90
2017-12-02T16:42:16.067Z,79.43
2017-12-02T16:44:43.664Z,83.37
2017-12-02T16:47:11.240Z,56.80
2017-12-02T16:49:39.840Z,58.90
2017-12-02T16:52:08.163Z,61.23
2017-12-02T16:54:35.727Z,59.43
2017-12-02T16:57:03.311Z,57.55
2017-12-02T16:59:30.972Z,56.13
2017-12-02T17:01:58.576Z,54.78
2017-12-02T17:04:26.144Z,66.33
2017-12-02T17:06:55.587Z,63.03
2017-12-02T17:09:23.146Z,56.40
2017-12-02T17:11:50.736Z,56.88
2017-12-02T17:14:19.064Z,56.33
2017-12-02T17:16:46.863Z,59.30
2017-12-02T17:19:14.432Z,51.80
2017-12-02T17:21:41.996Z,57.13
2017-12-02T17:24:10.357Z,56.43
2017-12-02T17:26:37.930Z,55.42
2017-12-02T17:29:05.583Z,44.47
2017-12-02T17:31:34.683Z,49.17
2017-12-02T17:34:02.292Z,59.53
2017-12-02T17:36:29.860Z,53.77
2017-12-02T17:38:57.460Z,54.27
2017-12-02T17:41:25.816Z,62.00
2017-12-02T17:43:55.627Z,56.28
2017-12-02T17:46:23.220Z,56.60
2017-12-02T17:48:50.788Z,50.38
2017-12-02T17:51:19.144Z,52.38
2017-12-02T17:53:46.700Z,47.27
2017-12-02T17:56:15.083Z,52.50
2017-12-02T17:58:42.648Z,46.50
2017-12-02T18:01:10.236Z,52.77
2017-12-02T18:03:38.568Z,47.70
2017-12-02T18:06:06.159Z,44.83
2017-12-02T18:08:33.719Z,54.77
2017-12-02T18:11:01.312Z,49.67
2017-12-02T18:13:28.879Z,46.40
2017-12-02T18:15:56.448Z,45.80
2017-12-02T18:18:24.076Z,45.77
2017-12-02T18:20:53.328Z,56.27
2017-12-02T18:23:20.911Z,71.50
2017-12-02T18:25:48.476Z,48.87
2017-12-02T18:28:16.063Z,45.73
2017-12-02T18:30:44.408Z,57.20
2017-12-02T18:33:11.993Z,60.12
2017-12-02T18:35:40.336Z,56.27
2017-12-02T18:38:08.132Z,56.97
2017-12-02T18:40:35.696Z,53.03
2017-12-02T18:43:03.284Z,51.67
2017-12-02T18:45:30.875Z,57.88
2017-12-02T18:47:58.444Z,69.33
2017-12-02T18:50:26.031Z,62.87
2017-12-02T18:52:54.800Z,61.25
2017-12-02T18:55:22.392Z,58.50
2017-12-02T18:57:50.232Z,60.40
2017-12-02T19:00:18.357Z,46.17
2017-12-02T19:02:45.920Z,63.60
2017-12-02T19:05:13.516Z,49.47
2017-12-02T19:07:41.075Z,52.93
2017-12-02T19:10:08.635Z,52.10
2017-12-02T19:12:36.224Z,58.40
2017-12-02T19:15:03.792Z,50.70
2017-12-02T19:17:31.375Z,60.30
2017-12-02T19:19:59.700Z,46.67
2017-12-02T19:22:27.297Z,50.33
2017-12-02T19:24:56.660Z,50.58
2017-12-02T19:27:24.243Z,57.97
2017-12-02T19:29:51.803Z,56.37
2017-12-02T19:32:19.476Z,53.97
2017-12-02T19:34:47.038Z,65.60
2017-12-02T19:37:14.600Z,61.00
2017-12-02T19:39:42.223Z,60.87
2017-12-02T19:42:09.793Z,51.50
2017-12-02T19:44:37.379Z,46.17
2017-12-02T19:47:05.713Z,50.47
2017-12-02T19:49:33.336Z,62.77
2017-12-02T19:52:01.676Z,62.47
2017-12-02T19:54:29.242Z,60.17
2017-12-02T19:56:57.635Z,54.83
2017-12-02T19:59:25.195Z,47.17
2017-12-02T20:01:54.900Z,61.83
2017-12-02T20:04:22.472Z,66.23
2017-12-02T20:06:50.077Z,57.63
2017-12-02T20:09:17.644Z,64.63
2017-12-02T20:11:45.349Z,75.77
2017-12-02T20:14:12.940Z,61.58
2017-12-02T20:16:41.308Z,72.57
2017-12-02T20:19:09.706Z,59.15
2017-12-02T20:21:38.036Z,67.60
2017-12-02T20:24:05.633Z,69.78
2017-12-02T20:26:33.960Z,68.53
2017-12-02T20:29:01.543Z,66.40
2017-12-02T20:31:29.108Z,75.70
2017-12-02T20:33:57.467Z,81.43
2017-12-02T20:36:25.027Z,77.33
2017-12-02T20:38:53.748Z,78.57
2017-12-02T20:41:21.410Z,76.60
2017-12-02T20:43:48.999Z,80.17
2017-12-02T20:46:16.560Z,67.13
2017-12-02T20:48:44.163Z,74.23
2017-12-02T20:51:11.727Z,74.10
2017-12-02T20:53:39.288Z,81.07
2017-12-02T20:56:06.876Z,74.10
2017-12-02T20:58:35.205Z,77.33
2017-12-02T21:01:02.804Z,86.28
2017-12-02T21:03:30.413Z,60.50
2017-12-02T21:05:58.011Z,74.33
2017-12-02T21:08:25.575Z,65.80
2017-12-02T21:10:54.884Z,76.97
2017-12-02T21:13:22.455Z,88.87
2017-12-02T21:15:50.039Z,82.63
2017-12-02T21:18:18.675Z,77.53
2017-12-02T21:20:46.359Z,86.33
2017-12-02T21:23:13.920Z,71.73
2017-12-02T21:25:41.696Z,86.23
2017-12-02T21:28:09.266Z,74.60
2017-12-02T21:30:37.596Z,84.20
2017-12-02T21:33:05.183Z,93.28
2017-12-02T21:35:32.751Z,117.40
2017-12-02T21:38:00.334Z,78.63
2017-12-02T21:40:28.671Z,101.05
2017-12-02T21:42:56.264Z,82.63
2017-12-02T21:45:24.591Z,85.83
2017-12-02T21:47:53.100Z,109.50
2017-12-02T21:50:20.668Z,100.87
2017-12-02T21:52:48.256Z,88.77
2017-12-02T21:55:16.616Z,89.60
2017-12-02T21:57:44.183Z,87.70
2017-12-02T22:00:12.854Z,87.28
2017-12-02T22:02:40.427Z,85.93
2017-12-02T22:05:08.011Z,92.35
2017-12-02T22:07:36.348Z,100.17
2017-12-02T22:10:03.948Z,101.85
2017-12-02T22:12:32.283Z,107.37
2017-12-02T22:14:59.959Z,96.72
2017-12-02T22:17:27.532Z,144.23
2017-12-02T22:19:55.847Z,118.20
2017-12-02T22:22:23.454Z,119.47
2017-12-02T22:24:51.027Z,113.93
2017-12-02T22:27:18.629Z,96.50
2017-12-02T22:29:46.243Z,119.57
2017-12-02T22:32:13.839Z,158.50
2017-12-02T22:34:42.108Z,86.50
2017-12-02T22:37:10.476Z,159.70
2017-12-02T22:39:38.811Z,112.27
2017-12-02T22:42:06.412Z,163.80
2017-12-02T22:44:34.750Z,147.35
2017-12-02T22:47:02.354Z,157.00
2017-12-02T22:49:30.691Z,167.63
2017-12-02T22:51:58.288Z,177.70
2017-12-02T22:54:25.870Z,194.07
2017-12-02T22:56:55.776Z,214.82
2017-12-02T22:59:24.113Z,151.93
2017-12-02T23:01:51.720Z,210.17
2017-12-02T23:04:20.057Z,258.33
2017-12-02T23:06:47.627Z,194.53
2017-12-02T23:09:15.232Z,186.73
2017-12-02T23:11:42.859Z,180.30
2017-12-02T23:14:10.460Z,191.13
2017-12-02T23:16:38.085Z,200.93
2017-12-02T23:19:05.687Z,218.17
2017-12-02T23:21:33.261Z,178.37
2017-12-02T23:24:00.972Z,216.15
2017-12-02T23:26:28.539Z,213.67
2017-12-02T23:28:56.884Z,187.53
2017-12-02T23:31:24.476Z,226.03
2017-12-02T23:33:53.739Z,188.40
2017-12-02T23:36:21.336Z,240.03
2017-12-02T23:38:48.908Z,270.67
2017-12-02T23:43:44.903Z,184.18
2017-12-02T23:46:12.504Z,331.60
2017-12-02T23:48:40.080Z,287.50
2017-12-02T23:51:08.539Z,296.90
2017-12-02T23:53:36.107Z,233.15
2017-12-02T23:56:04.500Z,228.32
2017-12-02T23:58:32.845Z,234.73
